Time;durP1;ratioP1;P1;durP2;ratioP2;P2;SDS_P1;SDS_P2;PMS_P1;PMS_P2;Temp;Humidity;BMP_temperature;BMP_pressure;BME280_temperature;BME280_humidity;BME280_pressure;Samples;Min_cycle;Max_cycle;Signal;HPM_P1;HPM_P2
2023/06/09 00:01:58;;;;;;;31.00;13.65;;;;;;;27.19;80.50;97669.06;4960539;28;20558;-62
2023/06/09 00:04:29;;;;;;;26.70;12.85;;;;;;;27.19;80.41;97675.28;4954649;28;20055;-63
2023/06/09 00:07:02;;;;;;;26.35;13.25;;;;;;;27.19;80.87;97672.56;4951693;28;20503;-63
2023/06/09 00:09:31;;;;;;;23.40;12.80;;;;;;;27.19;80.56;97675.28;4955925;28;20051;-64
2023/06/09 00:12:01;;;;;;;20.02;12.80;;;;;;;27.20;81.14;97679.63;4953388;28;20058;-61
2023/06/09 00:14:30;;;;;;;23.02;12.73;;;;;;;27.23;81.41;97680.88;4959515;28;20062;-64
2023/06/09 00:16:59;;;;;;;24.02;12.35;;;;;;;27.24;81.67;97693.34;4961139;28;20487;-63
2023/06/09 00:19:31;;;;;;;27.10;13.27;;;;;;;27.25;82.08;97693.03;4958816;28;20051;-62
2023/06/09 00:22:01;;;;;;;28.00;14.18;;;;;;;27.28;82.24;97699.72;4957314;28;20081;-62
2023/06/09 00:24:30;;;;;;;23.75;14.15;;;;;;;27.28;81.82;97705.19;4957407;28;20051;-64
2023/06/09 00:26:59;;;;;;;29.25;13.85;;;;;;;27.31;81.81;97704.50;4956490;28;20531;-64
2023/06/09 00:29:29;;;;;;;23.73;13.30;;;;;;;27.33;82.03;97710.44;4958597;28;20089;-66
2023/06/09 00:32:00;;;;;;;29.67;14.70;;;;;;;27.37;82.06;97710.59;4959707;28;20121;-65
2023/06/09 00:34:29;;;;;;;27.48;13.23;;;;;;;27.37;81.63;97705.94;4956684;28;20092;-63
2023/06/09 00:36:58;;;;;;;25.00;13.80;;;;;;;27.41;81.83;97715.03;4958946;28;20054;-65
2023/06/09 00:39:28;;;;;;;27.08;14.82;;;;;;;27.45;81.87;97712.47;4956929;28;20480;-65
2023/06/09 00:41:58;;;;;;;24.98;13.57;;;;;;;27.48;81.82;97715.38;4952811;28;20051;-65
2023/06/09 00:44:27;;;;;;;22.65;13.75;;;;;;;27.52;81.72;97715.53;4956645;28;20527;-65
2023/06/09 00:46:57;;;;;;;30.40;14.55;;;;;;;27.57;81.97;97715.34;4956140;28;20044;-64
2023/06/09 00:49:26;;;;;;;27.13;14.25;;;;;;;27.62;81.77;97720.59;4957892;28;20039;-65
2023/06/09 00:51:57;;;;;;;23.02;13.90;;;;;;;27.64;81.12;97719.16;4960891;28;20039;-64
2023/06/09 00:54:28;;;;;;;23.48;14.88;;;;;;;27.68;81.72;97720.09;4935915;28;20093;-62
2023/06/09 00:56:58;;;;;;;28.40;14.77;;;;;;;27.75;81.98;97722.28;4950630;28;20134;-63
2023/06/09 00:59:29;;;;;;;25.67;14.65;;;;;;;27.79;81.97;97722.44;4946717;28;20047;-65
2023/06/09 01:01:59;;;;;;;25.83;14.80;;;;;;;27.84;82.05;97733.91;4946122;28;20039;-64
2023/06/09 01:04:28;;;;;;;29.55;15.38;;;;;;;27.89;82.02;97722.84;4949393;28;20612;-65
2023/06/09 01:07:20;;;;;;;31.13;16.02;;;;;;;27.95;81.77;97731.63;4947792;28;20082;-65
2023/06/09 01:10:06;;;;;;;39.65;16.70;;;;;;;28.00;81.46;97726.81;4948575;28;20363;-63
2023/06/09 01:13:00;;;;;;;30.42;16.50;;;;;;;28.08;82.12;97727.88;4926613;29;20363;-65
2023/06/09 01:15:31;;;;;;;;;;;;;;;28.16;82.13;97731.69;4947419;28;20126;-65
2023/06/09 01:18:04;;;;;;;32.40;16.63;;;;;;;28.21;82.02;97734.22;4953374;28;20112;-65
2023/06/09 01:20:45;;;;;;;30.95;16.50;;;;;;;28.29;82.12;97736.88;4946704;28;20129;-66
2023/06/09 01:23:41;;;;;;;34.45;16.77;;;;;;;28.36;81.87;97742.63;4960887;28;20063;-63
2023/06/09 01:26:13;;;;;;;31.95;15.98;;;;;;;28.40;80.64;97737.28;4935242;28;20039;-66
2023/06/09 01:28:43;;;;;;;25.27;14.27;;;;;;;28.43;79.46;97740.16;4947305;28;20044;-64
2023/06/09 01:31:15;;;;;;;35.00;14.45;;;;;;;28.53;78.79;97745.22;4946278;28;20142;-65
2023/06/09 01:33:46;;;;;;;35.85;14.82;;;;;;;28.64;78.98;97745.59;4946866;28;20051;-63
2023/06/09 01:36:16;;;;;;;28.40;14.40;;;;;;;28.78;78.68;97751.59;4946309;28;20215;-63
2023/06/09 01:38:46;;;;;;;24.35;14.10;;;;;;;28.93;79.40;97747.47;4946152;28;20058;-64
2023/06/09 01:41:15;;;;;;;25.08;14.52;;;;;;;29.08;78.50;97751.50;4945858;28;20046;-63
2023/06/09 01:43:45;;;;;;;29.02;14.23;;;;;;;29.27;77.96;97755.28;4950753;28;20130;-62
2023/06/09 01:46:14;;;;;;;31.33;13.85;;;;;;;29.47;76.24;97752.88;4942943;28;20122;-65
2023/06/09 01:49:10;;;;;;;31.13;15.25;;;;;;;29.75;74.52;97759.25;4947295;28;20047;-66
2023/06/09 01:51:54;;;;;;;32.60;15.60;;;;;;;29.99;72.08;97753.03;4947534;28;20472;-65
2023/06/09 01:54:34;;;;;;;35.55;14.18;;;;;;;30.22;71.90;97765.91;4948193;28;20353;-63
2023/06/09 01:57:17;;;;;;;36.95;13.98;;;;;;;30.41;71.60;97764.47;4957213;28;20387;-64
2023/06/09 01:59:59;;;;;;;37.45;15.68;;;;;;;30.55;71.00;97763.00;4957948;28;20042;-60
2023/06/09 02:02:42;;;;;;;35.28;15.45;;;;;;;30.68;69.87;97767.28;4957538;28;20081;-63
2023/06/09 02:05:15;;;;;;;38.15;17.02;;;;;;;30.91;67.75;97774.97;4955226;28;20038;-64
2023/06/09 02:07:44;;;;;;;;;;;;;;;31.21;66.44;97777.03;4955456;28;20055;-62
2023/06/09 02:10:14;;;;;;;52.17;18.80;;;;;;;31.51;64.00;97785.63;4956243;28;19941;-62
2023/06/09 02:12:44;;;;;;;42.72;19.33;;;;;;;31.76;63.42;97789.03;4951442;28;20142;-64
2023/06/09 02:15:13;;;;;;;39.17;20.35;;;;;;;31.98;62.75;97779.41;4953560;28;20047;-65
2023/06/09 02:17:43;;;;;;;48.65;22.35;;;;;;;32.12;61.50;97782.53;4958862;28;20046;-64
2023/06/09 02:20:13;;;;;;;50.78;25.20;;;;;;;32.24;61.12;97784.34;4947413;28;20137;-65
2023/06/09 02:22:43;;;;;;;46.60;25.10;;;;;;;32.30;62.44;97782.94;4923315;28;20043;-65
2023/06/09 02:25:12;;;;;;;47.83;26.70;;;;;;;32.39;63.16;97791.75;4956094;28;20058;-63
2023/06/09 02:27:42;;;;;;;56.65;30.95;;;;;;;32.43;62.12;97784.41;4955803;28;20060;-63
2023/06/09 02:30:11;;;;;;;62.33;37.25;;;;;;;32.59;59.93;97787.09;4955422;28;20059;-63
2023/06/09 02:32:42;;;;;;;61.28;35.50;;;;;;;32.80;60.86;97793.03;4951039;28;20054;-64
2023/06/09 02:35:11;;;;;;;85.15;36.08;;;;;;;32.84;60.53;97786.47;4959526;28;20045;-63
2023/06/09 02:37:42;;;;;;;70.20;37.13;;;;;;;32.90;59.34;97789.75;4958133;28;20470;-63
2023/06/09 02:40:11;;;;;;;68.93;40.38;;;;;;;33.09;60.56;97786.19;4957535;28;20050;-62
2023/06/09 02:42:40;;;;;;;91.25;52.13;;;;;;;33.06;59.66;97784.19;4955312;28;20054;-62
2023/06/09 02:45:10;;;;;;;93.57;60.92;;;;;;;33.14;59.62;97785.91;4947210;28;20039;-63
2023/06/09 02:47:40;;;;;;;124.65;72.32;;;;;;;33.11;59.66;97797.59;4944001;28;20075;-63
2023/06/09 02:50:12;;;;;;;138.85;87.88;;;;;;;33.02;59.79;97797.06;4938820;28;20046;-62
2023/06/09 02:52:42;;;;;;;155.15;99.20;;;;;;;32.89;57.73;97793.63;4957625;28;20062;-64
2023/06/09 02:55:11;;;;;;;151.38;97.20;;;;;;;32.79;56.43;97795.03;4953829;28;20049;-64
2023/06/09 02:57:45;;;;;;;146.05;92.43;;;;;;;32.57;56.30;97790.22;4948348;28;20515;-63
2023/06/09 03:00:17;;;;;;;135.27;87.40;;;;;;;32.69;56.20;97789.31;4951011;28;20047;-66
2023/06/09 03:02:51;;;;;;;135.95;86.60;;;;;;;32.73;56.19;97785.47;4964212;28;20039;-65
2023/06/09 03:05:24;;;;;;;136.63;78.75;;;;;;;32.79;54.77;97783.25;4955255;28;20066;-64
2023/06/09 03:07:55;;;;;;;111.35;69.72;;;;;;;32.73;55.20;97785.47;4948367;28;20055;-66
2023/06/09 03:10:24;;;;;;;103.47;67.07;;;;;;;32.64;54.33;97779.41;4958050;28;20050;-67
2023/06/09 03:12:54;;;;;;;100.60;65.25;;;;;;;32.77;55.94;97782.81;4955270;28;20043;-65
2023/06/09 03:15:24;;;;;;;104.22;63.20;;;;;;;32.79;55.52;97781.31;4957262;28;20054;-64
2023/06/09 03:17:53;;;;;;;95.25;61.90;;;;;;;32.59;55.44;97770.63;4953378;28;20066;-65
2023/06/09 03:20:24;;;;;;;102.72;63.45;;;;;;;32.75;55.41;97774.16;4940649;28;20067;-65
2023/06/09 03:22:54;;;;;;;104.13;63.85;;;;;;;32.85;53.50;97774.34;4956881;28;20074;-65
2023/06/09 03:25:25;;;;;;;97.45;63.42;;;;;;;32.86;52.97;97772.41;4955489;28;20547;-64
2023/06/09 03:27:55;;;;;;;101.43;63.35;;;;;;;32.98;54.14;97769.50;4954385;28;20384;-63
2023/06/09 03:30:24;;;;;;;104.53;61.90;;;;;;;32.77;53.19;97767.16;4941664;28;20059;-64
2023/06/09 03:32:54;;;;;;;90.13;60.17;;;;;;;32.86;54.23;97773.22;4958167;28;20102;-63
2023/06/09 03:35:24;;;;;;;93.80;60.72;;;;;;;32.93;54.67;97778.84;4959749;28;20059;-65
2023/06/09 03:37:54;;;;;;;89.18;57.88;;;;;;;33.06;54.43;97773.22;4957293;28;20051;-64
2023/06/09 03:40:24;;;;;;;94.35;58.60;;;;;;;32.85;54.02;97781.78;4960077;28;20049;-64
2023/06/09 03:42:53;;;;;;;92.68;57.83;;;;;;;32.88;52.19;97781.09;4961710;28;20058;-64
2023/06/09 03:45:23;;;;;;;89.82;53.78;;;;;;;32.96;53.19;97788.31;4952651;28;20141;-65
2023/06/09 03:47:52;;;;;;;78.63;51.28;;;;;;;33.02;54.24;97791.56;4948534;28;20089;-65
2023/06/09 03:50:22;;;;;;;80.85;51.75;;;;;;;33.17;54.14;97794.25;4958709;28;20058;-66
2023/06/09 03:52:53;;;;;;;79.65;44.50;;;;;;;33.00;52.11;97793.84;4964897;28;20569;-64
2023/06/09 03:55:24;;;;;;;81.25;46.88;;;;;;;33.21;54.15;97794.31;4960436;28;20061;-64
2023/06/09 03:57:55;;;;;;;72.80;42.53;;;;;;;33.19;52.77;97786.44;4965253;28;20061;-64
2023/06/09 04:00:26;;;;;;;65.63;40.17;;;;;;;33.26;53.78;97794.81;4957623;28;20049;-63
2023/06/09 04:02:59;;;;;;;61.60;37.00;;;;;;;33.27;54.86;97784.63;4963192;28;20057;-65
2023/06/09 04:05:29;;;;;;;50.17;31.13;;;;;;;33.27;53.33;97790.91;4953689;28;20062;-65
2023/06/09 04:07:59;;;;;;;55.22;30.23;;;;;;;33.23;53.71;97790.06;4956962;28;20097;-66
2023/06/09 04:10:28;;;;;;;51.53;29.13;;;;;;;33.41;52.35;97785.66;4952936;28;20065;-65
2023/06/09 04:12:58;;;;;;;54.63;29.08;;;;;;;33.60;52.46;97792.28;4952734;28;20356;-66
2023/06/09 04:15:27;;;;;;;51.83;29.45;;;;;;;33.73;52.20;97793.72;4953961;28;20046;-66
2023/06/09 04:17:58;;;;;;;51.63;26.73;;;;;;;33.72;51.33;97790.19;4942713;28;20086;-64
2023/06/09 04:20:34;;;;;;;49.75;29.38;;;;;;;33.87;52.22;97784.91;4955493;28;20157;-66
2023/06/09 04:23:05;;;;;;;48.20;30.05;;;;;;;33.71;53.46;97790.56;4953362;28;20051;-64
2023/06/09 04:25:37;;;;;;;52.05;30.65;;;;;;;33.45;51.95;97785.75;4960342;28;20051;-64
2023/06/09 04:28:28;;;;;;;50.92;30.58;;;;;;;33.63;52.37;97786.88;4957589;28;20071;-63
2023/06/09 04:30:58;;;;;;;55.67;29.85;;;;;;;33.43;51.53;97785.31;4954427;28;20775;-66
2023/06/09 04:33:27;;;;;;;55.15;28.50;;;;;;;33.68;51.58;97785.81;4958174;28;20058;-66
2023/06/09 04:36:00;;;;;;;49.33;28.65;;;;;;;33.68;53.11;97783.81;4951342;28;20047;-66
2023/06/09 04:38:33;;;;;;;51.45;29.27;;;;;;;33.89;50.87;97788.09;4940412;28;20052;-63
2023/06/09 04:41:06;;;;;;;49.55;26.48;;;;;;;34.00;50.20;97786.31;4950831;28;20057;-66
2023/06/09 04:43:41;;;;;;;46.40;24.63;;;;;;;33.79;50.01;97787.56;4959501;28;20114;-67
2023/06/09 04:46:13;;;;;;;44.40;23.08;;;;;;;33.84;50.74;97792.75;4954607;28;20046;-66
2023/06/09 04:48:44;;;;;;;43.72;25.17;;;;;;;33.89;51.08;97797.16;4954968;28;20113;-68
2023/06/09 04:51:16;;;;;;;29.88;16.55;;;;;;;33.65;50.31;97789.22;4961602;28;20070;-70
2023/06/09 04:53:53;;;;;;;34.30;18.17;;;;;;;33.49;52.05;97788.56;4938599;28;20699;-63
2023/06/09 04:56:25;;;;;;;44.85;22.00;;;;;;;33.34;51.32;97790.25;4947682;28;20122;-70
2023/06/09 04:58:56;;;;;;;40.10;20.67;;;;;;;33.23;51.48;97792.00;4954183;28;20050;-70
2023/06/09 05:01:25;;;;;;;42.53;22.30;;;;;;;33.21;51.66;97792.34;4957331;28;20051;-68
2023/06/09 05:03:57;;;;;;;39.03;23.25;;;;;;;33.32;51.18;97785.13;4956991;28;20446;-64
2023/06/09 05:06:27;;;;;;;44.50;25.80;;;;;;;33.44;52.17;97786.09;4956260;28;20130;-68
2023/06/09 05:08:57;;;;;;;52.03;27.35;;;;;;;33.68;51.86;97786.56;4948845;28;20118;-65
2023/06/09 05:11:26;;;;;;;55.45;30.23;;;;;;;33.75;51.84;97789.47;4947315;28;20122;-64
2023/06/09 05:13:56;;;;;;;61.78;29.85;;;;;;;33.56;51.93;97783.97;4948022;28;20057;-68
2023/06/09 05:16:28;;;;;;;55.15;29.25;;;;;;;33.39;52.17;97778.97;4947212;29;20078;-71
2023/06/09 05:18:58;;;;;;;52.22;27.80;;;;;;;33.60;50.93;97773.06;4947734;28;20047;-71
2023/06/09 05:21:28;;;;;;;50.40;30.48;;;;;;;33.38;53.19;97771.88;4947166;29;20067;-71
2023/06/09 05:23:58;;;;;;;55.70;31.02;;;;;;;33.23;54.35;97773.59;4953121;28;20109;-70
2023/06/09 05:26:29;;;;;;;61.83;31.60;;;;;;;32.92;53.58;97780.00;4957324;28;20051;-70
2023/06/09 05:28:59;;;;;;;53.13;33.20;;;;;;;33.06;54.80;97770.47;4956634;28;20047;-68
2023/06/09 05:31:31;;;;;;;64.95;33.65;;;;;;;32.97;53.38;97767.94;4924800;28;20055;-68
2023/06/09 05:34:02;;;;;;;58.85;31.90;;;;;;;33.66;46.46;97777.13;4949837;28;20059;-70
2023/06/09 05:36:33;;;;;;;70.53;31.88;;;;;;;34.07;49.26;97769.94;4943609;28;20628;-65
2023/06/09 05:39:03;;;;;;;46.10;30.67;;;;;;;34.27;49.74;97775.00;4946791;28;20134;-70
2023/06/09 05:41:32;;;;;;;63.78;29.80;;;;;;;34.58;44.36;97765.59;4947580;28;20054;-69
2023/06/09 05:44:02;;;;;;;55.33;27.77;;;;;;;35.03;43.41;97770.13;4943779;28;20047;-72
2023/06/09 05:46:36;;;;;;;48.42;24.80;;;;;;;35.54;41.50;97761.22;4947164;28;20039;-72
2023/06/09 05:49:06;;;;;;;41.72;23.77;;;;;;;35.66;44.35;97760.22;4944825;28;20075;-72
2023/06/09 05:51:37;;;;;;;44.65;23.15;;;;;;;35.66;44.74;97762.97;4944261;28;20051;-71
2023/06/09 05:54:06;;;;;;;50.55;24.67;;;;;;;36.15;38.51;97763.38;4943733;28;20572;-71
2023/06/09 05:56:37;;;;;;;49.97;25.27;;;;;;;36.38;39.77;97763.91;4944165;28;20047;-71
2023/06/09 05:59:09;;;;;;;45.22;24.58;;;;;;;35.96;43.69;97766.34;4939813;28;20625;-72
2023/06/09 06:01:39;;;;;;;44.78;25.50;;;;;;;35.35;45.81;97762.25;4942038;28;20482;-68
2023/06/09 06:04:09;;;;;;;50.33;27.08;;;;;;;35.20;47.57;97760.50;4942861;28;20050;-67
2023/06/09 06:06:38;;;;;;;46.80;26.20;;;;;;;35.28;46.80;97756.66;4946133;28;20108;-66
2023/06/09 06:09:08;;;;;;;42.55;25.92;;;;;;;35.20;47.62;97760.50;4944692;28;20055;-68
2023/06/09 06:11:37;;;;;;;52.45;26.02;;;;;;;34.99;48.46;97752.00;4945525;28;20074;-64
2023/06/09 06:14:07;;;;;;;48.50;23.98;;;;;;;34.75;49.69;97749.72;4944149;28;20129;-68
2023/06/09 06:16:37;;;;;;;42.58;23.30;;;;;;;34.92;47.39;97751.91;4945812;28;20137;-63
2023/06/09 06:19:06;;;;;;;39.72;21.75;;;;;;;35.02;44.75;97749.28;4945006;28;20499;-63
2023/06/09 06:21:37;;;;;;;47.65;22.30;;;;;;;34.97;47.54;97740.53;4945278;28;20475;-64
2023/06/09 06:24:07;;;;;;;42.15;21.85;;;;;;;35.02;45.58;97738.25;4947350;28;20051;-64
2023/06/09 06:26:37;;;;;;;45.38;21.50;;;;;;;34.84;45.58;97734.50;4943476;28;20062;-63
2023/06/09 06:29:07;;;;;;;42.00;21.88;;;;;;;34.71;47.19;97733.97;4946404;28;20062;-62
2023/06/09 06:31:36;;;;;;;39.20;21.83;;;;;;;34.76;46.69;97732.84;4947383;28;20460;-62
2023/06/09 06:34:05;;;;;;;39.20;22.05;;;;;;;34.93;46.72;97735.00;4949662;28;20063;-62
2023/06/09 06:36:35;;;;;;;48.95;21.85;;;;;;;34.93;50.09;97729.50;4947536;28;20137;-64
2023/06/09 06:39:04;;;;;;;37.05;22.83;;;;;;;34.87;51.34;97720.03;4947262;28;20595;-64
2023/06/09 06:41:34;;;;;;;46.38;23.38;;;;;;;34.80;50.65;97719.13;4947459;28;20086;-63
2023/06/09 06:44:04;;;;;;;38.33;22.20;;;;;;;34.75;49.56;97712.00;4946322;28;20134;-64
2023/06/09 06:46:33;;;;;;;43.25;22.40;;;;;;;34.69;50.12;97714.31;4947871;28;20055;-64
2023/06/09 06:49:03;;;;;;;38.70;21.83;;;;;;;34.58;52.63;97712.53;4947512;28;20057;-65
2023/06/09 06:51:33;;;;;;;45.67;22.10;;;;;;;34.54;48.79;97706.22;4947815;28;20110;-65
2023/06/09 06:54:04;;;;;;;44.25;22.25;;;;;;;34.71;47.93;97694.66;4947145;28;20797;-64
2023/06/09 06:56:33;;;;;;;39.85;22.80;;;;;;;34.84;48.81;97692.44;4958486;28;20080;-63
2023/06/09 06:59:03;;;;;;;33.30;20.40;;;;;;;34.75;49.80;97702.94;4966512;28;20062;-63
2023/06/09 07:01:33;;;;;;;38.42;17.80;;;;;;;34.74;50.15;97690.38;4957623;28;20051;-64
2023/06/09 07:04:02;;;;;;;34.58;15.32;;;;;;;34.74;49.14;97691.16;4953697;28;20167;-61
2023/06/09 07:06:32;;;;;;;35.65;16.50;;;;;;;34.65;50.41;97685.91;4962743;28;20097;-63
2023/06/09 07:09:01;;;;;;;29.20;14.18;;;;;;;34.53;48.42;97683.41;4966689;28;20129;-63
2023/06/09 07:11:33;;;;;;;31.63;14.20;;;;;;;34.39;47.16;97671.47;4965902;28;20490;-63
2023/06/09 07:14:03;;;;;;;29.77;13.27;;;;;;;34.35;46.63;97665.91;4966301;28;20062;-64
2023/06/09 07:16:32;;;;;;;26.30;12.55;;;;;;;34.17;46.87;97671.16;4966848;28;20667;-65
2023/06/09 07:19:01;;;;;;;25.63;11.85;;;;;;;34.17;45.78;97659.38;4966786;28;20042;-63
2023/06/09 07:21:32;;;;;;;23.45;10.68;;;;;;;34.26;45.54;97657.94;4962980;28;20359;-63
2023/06/09 07:24:03;;;;;;;24.00;10.35;;;;;;;34.16;46.11;97663.28;4957182;28;20135;-62
2023/06/09 07:26:33;;;;;;;30.38;11.02;;;;;;;34.26;43.75;97657.94;4966808;28;20047;-64
2023/06/09 07:29:02;;;;;;;21.00;9.90;;;;;;;34.25;46.54;97655.56;4967330;28;20047;-63
2023/06/09 07:31:31;;;;;;;29.95;10.10;;;;;;;34.30;46.13;97659.94;4966606;28;20057;-63
2023/06/09 07:34:01;;;;;;;22.52;10.23;;;;;;;34.24;45.02;97648.47;4969889;28;20043;-64
2023/06/09 07:36:34;;;;;;;23.77;10.85;;;;;;;34.31;45.54;97647.75;4966781;28;20636;-64
2023/06/09 07:41:53;;;;;;;23.70;11.32;;;;;;;34.21;44.51;97641.75;4966517;28;20363;-64
2023/06/09 07:44:22;;;;;;;19.40;9.88;;;;;;;34.06;45.99;97639.19;4952973;28;20043;-64
2023/06/09 07:46:51;;;;;;;20.80;9.88;;;;;;;34.12;45.52;97630.22;4966829;28;21465;-64
2023/06/09 07:49:21;;;;;;;27.33;9.82;;;;;;;34.35;45.57;97632.09;4965396;28;21465;-65
2023/06/09 07:51:52;;;;;;;18.48;9.88;;;;;;;34.31;45.58;97631.28;4965325;28;20062;-64
2023/06/09 07:54:21;;;;;;;24.40;10.10;;;;;;;34.18;45.79;97622.47;4966239;28;20055;-63
2023/06/09 07:56:51;;;;;;;25.08;10.57;;;;;;;34.10;46.92;97623.53;4965114;28;20478;-64
2023/06/09 07:59:20;;;;;;;21.92;11.57;;;;;;;34.02;48.66;97613.59;4941814;28;20055;-63
2023/06/09 08:01:50;;;;;;;27.63;11.63;;;;;;;33.87;49.95;97612.63;4947332;28;20054;-64
2023/06/09 08:04:20;;;;;;;23.98;12.02;;;;;;;33.83;49.05;97609.81;4946409;28;20058;-64
2023/06/09 08:06:49;;;;;;;26.40;12.02;;;;;;;33.99;47.16;97601.38;4947357;28;20047;-64
2023/06/09 08:09:19;;;;;;;22.63;12.10;;;;;;;34.07;46.09;97605.84;4947014;28;20051;-64
2023/06/09 08:11:48;;;;;;;26.75;14.73;;;;;;;34.15;45.46;97592.97;4946740;28;20101;-64
2023/06/09 08:14:18;;;;;;;29.17;14.00;;;;;;;34.30;44.83;97591.22;4945345;28;20078;-65
2023/06/09 08:16:47;;;;;;;29.25;13.88;;;;;;;34.22;46.30;97580.13;4949402;28;20642;-64
2023/06/09 08:19:17;;;;;;;27.92;15.40;;;;;;;34.09;47.67;97586.19;4950772;28;20506;-64
2023/06/09 08:21:46;;;;;;;31.75;14.15;;;;;;;34.10;47.43;97580.34;4949674;28;20079;-63
2023/06/09 08:24:17;;;;;;;34.70;13.00;;;;;;;34.16;45.89;97569.81;4949900;28;20122;-63
2023/06/09 08:26:48;;;;;;;27.17;14.05;;;;;;;34.24;46.08;97566.00;4950175;28;20054;-63
2023/06/09 08:29:18;;;;;;;27.25;13.68;;;;;;;34.09;47.24;97570.50;4949897;28;20043;-63
2023/06/09 08:31:48;;;;;;;31.92;13.48;;;;;;;33.86;48.70;97558.81;4950610;28;20165;-66
2023/06/09 08:34:18;;;;;;;31.40;12.50;;;;;;;33.82;48.79;97561.53;4948336;28;20059;-66
2023/06/09 08:36:47;;;;;;;25.23;12.80;;;;;;;33.84;49.52;97555.66;4950315;28;20349;-65
2023/06/09 08:39:17;;;;;;;30.42;13.13;;;;;;;33.90;47.56;97553.41;4951867;28;20069;-64
2023/06/09 08:41:52;;;;;;;28.52;12.43;;;;;;;33.88;48.86;97551.00;4950093;28;20157;-64
2023/06/09 08:44:26;;;;;;;30.42;12.50;;;;;;;33.99;46.15;97546.44;4948377;28;20047;-65
2023/06/09 08:47:01;;;;;;;25.40;12.57;;;;;;;33.82;45.21;97539.56;4948022;28;20106;-64
2023/06/09 08:49:30;;;;;;;23.58;12.35;;;;;;;33.82;45.03;97536.00;4950196;28;20480;-64
2023/06/09 08:52:03;;;;;;;27.95;13.68;;;;;;;33.88;46.54;97531.78;4949910;28;20142;-65
2023/06/09 08:54:33;;;;;;;25.67;13.02;;;;;;;33.87;46.87;97524.69;4949068;28;20050;-65
2023/06/09 08:57:05;;;;;;;33.42;11.70;;;;;;;33.78;46.27;97521.44;4962466;28;20039;-66
2023/06/09 08:59:35;;;;;;;22.05;10.43;;;;;;;33.82;45.86;97517.56;4962030;28;20043;-65
2023/06/09 09:02:10;;;;;;;21.73;10.90;;;;;;;33.83;46.12;97519.16;4955489;28;20050;-64
2023/06/09 09:04:40;;;;;;;21.67;10.30;;;;;;;33.83;48.51;97513.66;4965198;28;20055;-64
2023/06/09 09:07:11;;;;;;;24.52;10.82;;;;;;;33.69;49.25;97510.72;4967524;28;20042;-65
2023/06/09 09:09:41;;;;;;;21.98;10.30;;;;;;;33.65;47.99;97503.59;4969003;28;20054;-64
2023/06/09 09:12:15;;;;;;;23.90;10.60;;;;;;;33.65;49.12;97504.38;4968207;28;20056;-64
2023/06/09 09:14:45;;;;;;;23.20;10.60;;;;;;;33.76;47.87;97499.84;4965273;28;20041;-65
2023/06/09 09:17:16;;;;;;;24.95;10.52;;;;;;;33.76;49.32;97501.81;4957247;28;20571;-64
2023/06/09 09:19:51;;;;;;;18.02;9.90;;;;;;;33.77;44.30;97490.44;4967831;28;20053;-65
2023/06/09 09:22:21;;;;;;;22.33;10.50;;;;;;;33.63;45.31;97481.22;4967516;28;21105;-65
2023/06/09 09:24:50;;;;;;;24.20;10.55;;;;;;;33.49;47.19;97473.56;4964142;28;20066;-65
2023/06/09 09:27:22;;;;;;;29.33;11.35;;;;;;;33.39;45.89;97486.00;4956216;28;20604;-66
2023/06/09 09:29:52;;;;;;;25.25;10.80;;;;;;;33.21;44.94;97476.72;4969562;28;20054;-65
2023/06/09 09:32:25;;;;;;;24.85;10.52;;;;;;;33.27;45.18;97475.25;4967565;28;20059;-66
2023/06/09 09:34:58;;;;;;;26.48;11.68;;;;;;;33.24;44.72;97466.94;4967488;28;20796;-65
2023/06/09 09:37:30;;;;;;;26.88;11.63;;;;;;;33.34;44.36;97463.56;4964766;28;20054;-64
2023/06/09 09:40:00;;;;;;;25.77;11.52;;;;;;;33.35;45.35;97454.16;4967047;28;20051;-64
2023/06/09 09:42:31;;;;;;;24.67;11.80;;;;;;;33.39;46.04;97449.50;4964526;28;20730;-65
2023/06/09 09:45:04;;;;;;;25.80;12.57;;;;;;;33.35;46.76;97452.22;4966153;28;20044;-64
2023/06/09 09:47:33;;;;;;;30.27;13.70;;;;;;;33.24;48.34;97454.00;4966072;28;20054;-66
2023/06/09 09:50:03;;;;;;;28.85;13.18;;;;;;;33.19;49.08;97439.84;4964737;28;20069;-66
2023/06/09 09:52:35;;;;;;;30.60;13.32;;;;;;;33.14;49.65;97435.47;4965660;28;20130;-66
2023/06/09 09:55:08;;;;;;;22.30;11.55;;;;;;;33.24;48.06;97436.75;4965469;28;20133;-66
2023/06/09 09:57:39;;;;;;;25.90;12.63;;;;;;;33.20;46.91;97436.69;4966679;28;20591;-63
2023/06/09 10:00:11;;;;;;;26.35;13.63;;;;;;;33.26;46.85;97423.44;4964897;28;20085;-63
2023/06/09 10:02:45;;;;;;;29.55;13.02;;;;;;;33.25;47.74;97421.84;4963628;28;20050;-64
2023/06/09 10:05:17;;;;;;;21.83;12.02;;;;;;;33.20;46.81;97422.19;4963390;28;20478;-65
2023/06/09 10:07:51;;;;;;;24.38;11.90;;;;;;;33.25;46.50;97413.63;4957930;28;20463;-64
2023/06/09 10:10:21;;;;;;;25.50;12.00;;;;;;;33.27;45.55;97416.81;4949684;28;20140;-65
2023/06/09 10:12:52;;;;;;;28.25;12.93;;;;;;;33.15;45.75;97419.78;4958614;28;20130;-65
2023/06/09 10:15:22;;;;;;;32.55;12.60;;;;;;;33.03;46.87;97398.78;4958402;28;20054;-65
2023/06/09 10:17:56;;;;;;;26.55;12.30;;;;;;;33.03;46.29;97404.28;4966943;28;20638;-65
2023/06/09 10:20:26;;;;;;;27.98;12.55;;;;;;;32.81;46.74;97397.72;4967130;28;20051;-65
2023/06/09 10:22:56;;;;;;;21.48;12.20;;;;;;;32.80;46.37;97401.59;4963210;28;20592;-65
2023/06/09 10:25:27;;;;;;;29.33;12.57;;;;;;;32.85;47.38;97395.00;4966848;28;20051;-64
2023/06/09 10:27:57;;;;;;;24.83;11.98;;;;;;;33.02;46.66;97385.47;4958857;28;20054;-64
2023/06/09 10:30:26;;;;;;;27.20;12.68;;;;;;;33.08;47.57;97378.47;4960347;28;20098;-65
2023/06/09 10:33:04;;;;;;;35.72;13.02;;;;;;;33.16;47.28;97380.19;4966971;28;20056;-65
2023/06/09 10:35:46;;;;;;;21.65;12.32;;;;;;;33.17;48.42;97387.25;4967042;28;20099;-64
2023/06/09 10:38:54;;;;;;;30.67;12.40;;;;;;;33.25;46.88;97375.19;4966184;28;20133;-64
2023/06/09 10:41:29;;;;;;;24.10;12.32;;;;;;;33.34;46.49;97375.72;4963581;28;20711;-66
2023/06/09 10:44:26;;;;;;;27.33;12.10;;;;;;;33.32;46.08;97372.56;4967005;28;20053;-65
2023/06/09 10:46:56;;;;;;;24.70;11.80;;;;;;;33.20;47.51;97361.81;4964909;28;20074;-64
2023/06/09 10:49:25;;;;;;;20.23;10.60;;;;;;;33.27;46.97;97367.41;4966593;28;20051;-64
2023/06/09 10:51:55;;;;;;;24.70;10.93;;;;;;;33.28;46.46;97367.00;4962607;28;20046;-65
2023/06/09 10:54:26;;;;;;;26.20;11.15;;;;;;;33.41;45.19;97359.34;4965602;28;20054;-64
2023/06/09 10:57:02;;;;;;;20.73;10.77;;;;;;;33.30;47.52;97361.16;4966828;28;20471;-66
2023/06/09 10:59:32;;;;;;;19.48;10.05;;;;;;;33.26;49.10;97361.13;4952552;28;20050;-70
2023/06/09 11:02:01;;;;;;;28.23;11.93;;;;;;;33.23;46.92;97358.34;4617000;28;10000087;-61
2023/06/09 11:07:22;;;;;;;22.42;10.60;;;;;;;34.12;39.02;97344.38;4963400;28;20043;-62
2023/06/09 11:09:51;;;;;;;21.70;11.40;;;;;;;33.99;41.42;97347.81;4961091;28;20057;-60
2023/06/09 11:12:39;;;;;;;28.13;11.68;;;;;;;34.42;37.19;97336.00;4962384;28;20062;-59
2023/06/09 11:15:10;;;;;;;30.05;11.98;;;;;;;34.58;38.12;97336.50;4963288;28;20070;-59
2023/06/09 11:17:44;;;;;;;25.77;12.13;;;;;;;34.69;39.16;97333.88;4964456;28;20058;-61
2023/06/09 11:20:19;;;;;;;24.95;10.90;;;;;;;34.89;38.04;97331.59;4963692;28;20074;-61
2023/06/09 11:22:49;;;;;;;25.95;11.38;;;;;;;34.96;40.35;97328.91;4950341;28;20719;-61
2023/06/09 11:25:19;;;;;;;27.88;11.48;;;;;;;35.05;39.53;97332.09;4961488;28;20046;-60
2023/06/09 11:28:09;;;;;;;24.40;11.88;;;;;;;35.20;38.42;97327.44;4961427;28;20054;-60
2023/06/09 11:31:01;;;;;;;28.42;11.70;;;;;;;35.26;39.63;97325.91;4952075;28;20071;-60
2023/06/09 11:33:53;;;;;;;19.63;10.97;;;;;;;35.30;40.54;97321.19;4959839;28;20058;-60
2023/06/09 11:36:25;;;;;;;25.65;11.27;;;;;;;35.39;39.69;97322.41;4953463;28;20150;-60
2023/06/09 11:39:06;;;;;;;32.63;11.80;;;;;;;35.42;38.38;97313.38;4963426;28;20051;-59
2023/06/09 11:41:36;;;;;;;25.90;12.48;;;;;;;35.40;37.11;97307.47;4961090;28;20677;-59
2023/06/09 11:44:06;;;;;;;31.48;11.60;;;;;;;35.83;33.64;97313.88;4961566;28;20138;-60